sensor_id;sensor_type;location;lat;lon;timestamp;P1;durP1;ratioP1;P2;durP2;ratioP2
24485;SDS011;13449;49.374;8.584;2023-06-01T00:00:00;10.13;;;4.18;;
24485;SDS011;13449;49.374;8.584;2023-06-01T00:02:27;13.50;;;3.92;;
24485;SDS011;13449;49.374;8.584;2023-06-01T00:04:54;11.15;;;4.32;;
24485;SDS011;13449;49.374;8.584;2023-06-01T00:07:23;9.30;;;3.85;;
24485;SDS011;13449;49.374;8.584;2023-06-01T00:09:50;11.00;;;3.40;;
24485;SDS011;13449;49.374;8.584;2023-06-01T00:12:16;8.57;;;2.90;;
24485;SDS011;13449;49.374;8.584;2023-06-01T00:14:43;8.15;;;3.10;;
24485;SDS011;13449;49.374;8.584;2023-06-01T00:17:10;6.10;;;1.88;;
24485;SDS011;13449;49.374;8.584;2023-06-01T00:19:36;5.15;;;1.80;;
24485;SDS011;13449;49.374;8.584;2023-06-01T00:22:05;6.80;;;2.30;;
24485;SDS011;13449;49.374;8.584;2023-06-01T00:24:33;4.47;;;1.90;;
24485;SDS011;13449;49.374;8.584;2023-06-01T00:26:59;3.78;;;1.55;;
24485;SDS011;13449;49.374;8.584;2023-06-01T00:29:26;1.98;;;1.50;;
24485;SDS011;13449;49.374;8.584;2023-06-01T00:31:55;2.05;;;1.13;;
24485;SDS011;13449;49.374;8.584;2023-06-01T00:34:21;4.75;;;1.60;;
24485;SDS011;13449;49.374;8.584;2023-06-01T00:36:48;9.27;;;1.52;;
24485;SDS011;13449;49.374;8.584;2023-06-01T00:39:15;6.22;;;1.63;;
24485;SDS011;13449;49.374;8.584;2023-06-01T00:41:42;4.90;;;1.23;;
24485;SDS011;13449;49.374;8.584;2023-06-01T00:44:08;5.07;;;2.00;;
24485;SDS011;13449;49.374;8.584;2023-06-01T00:46:35;3.35;;;1.60;;
24485;SDS011;13449;49.374;8.584;2023-06-01T00:49:03;3.22;;;1.73;;
24485;SDS011;13449;49.374;8.584;2023-06-01T00:51:29;4.63;;;1.85;;
24485;SDS011;13449;49.374;8.584;2023-06-01T00:53:59;5.50;;;2.00;;
24485;SDS011;13449;49.374;8.584;2023-06-01T00:56:26;5.07;;;1.75;;
24485;SDS011;13449;49.374;8.584;2023-06-01T00:58:57;2.38;;;1.60;;
24485;SDS011;13449;49.374;8.584;2023-06-01T01:01:24;6.45;;;2.00;;
24485;SDS011;13449;49.374;8.584;2023-06-01T01:03:52;3.70;;;1.50;;
24485;SDS011;13449;49.374;8.584;2023-06-01T01:06:27;6.00;;;2.15;;
24485;SDS011;13449;49.374;8.584;2023-06-01T01:09:14;4.95;;;1.38;;
24485;SDS011;13449;49.374;8.584;2023-06-01T01:11:57;4.75;;;1.60;;
24485;SDS011;13449;49.374;8.584;2023-06-01T01:14:30;3.17;;;1.92;;
24485;SDS011;13449;49.374;8.584;2023-06-01T01:20:08;3.15;;;1.48;;
24485;SDS011;13449;49.374;8.584;2023-06-01T01:25:21;5.22;;;1.60;;
24485;SDS011;13449;49.374;8.584;2023-06-01T01:30:34;10.57;;;1.52;;
24485;SDS011;13449;49.374;8.584;2023-06-01T01:33:03;5.60;;;1.48;;
24485;SDS011;13449;49.374;8.584;2023-06-01T01:35:31;2.67;;;1.83;;
24485;SDS011;13449;49.374;8.584;2023-06-01T01:37:59;2.67;;;1.33;;
24485;SDS011;13449;49.374;8.584;2023-06-01T01:40:25;2.83;;;1.73;;
24485;SDS011;13449;49.374;8.584;2023-06-01T01:42:52;5.18;;;1.73;;
24485;SDS011;13449;49.374;8.584;2023-06-01T01:45:22;9.02;;;2.28;;
24485;SDS011;13449;49.374;8.584;2023-06-01T01:50:29;4.05;;;1.60;;
24485;SDS011;13449;49.374;8.584;2023-06-01T01:53:02;4.35;;;1.40;;
24485;SDS011;13449;49.374;8.584;2023-06-01T01:55:33;4.00;;;1.33;;
24485;SDS011;13449;49.374;8.584;2023-06-01T01:58:03;5.22;;;1.52;;
24485;SDS011;13449;49.374;8.584;2023-06-01T02:00:30;1.98;;;1.20;;
24485;SDS011;13449;49.374;8.584;2023-06-01T02:03:00;4.63;;;2.08;;
24485;SDS011;13449;49.374;8.584;2023-06-01T02:05:29;3.15;;;1.30;;
24485;SDS011;13449;49.374;8.584;2023-06-01T02:07:58;2.72;;;1.33;;
24485;SDS011;13449;49.374;8.584;2023-06-01T02:10:24;5.82;;;1.58;;
24485;SDS011;13449;49.374;8.584;2023-06-01T02:12:51;3.28;;;1.85;;
24485;SDS011;13449;49.374;8.584;2023-06-01T02:15:17;7.10;;;1.67;;
24485;SDS011;13449;49.374;8.584;2023-06-01T02:17:44;3.28;;;1.35;;
24485;SDS011;13449;49.374;8.584;2023-06-01T02:20:12;4.50;;;1.52;;
24485;SDS011;13449;49.374;8.584;2023-06-01T02:22:41;2.55;;;1.65;;
24485;SDS011;13449;49.374;8.584;2023-06-01T02:25:07;2.20;;;1.50;;
24485;SDS011;13449;49.374;8.584;2023-06-01T02:27:34;2.80;;;1.80;;
24485;SDS011;13449;49.374;8.584;2023-06-01T02:30:01;5.65;;;1.45;;
24485;SDS011;13449;49.374;8.584;2023-06-01T02:32:28;2.15;;;1.33;;
24485;SDS011;13449;49.374;8.584;2023-06-01T02:34:56;1.88;;;1.25;;
24485;SDS011;13449;49.374;8.584;2023-06-01T02:37:23;3.88;;;1.40;;
24485;SDS011;13449;49.374;8.584;2023-06-01T02:39:50;1.55;;;1.33;;
24485;SDS011;13449;49.374;8.584;2023-06-01T02:42:16;5.43;;;2.03;;
24485;SDS011;13449;49.374;8.584;2023-06-01T02:44:43;3.83;;;1.55;;
24485;SDS011;13449;49.374;8.584;2023-06-01T02:47:10;6.13;;;2.08;;
24485;SDS011;13449;49.374;8.584;2023-06-01T02:49:38;5.25;;;2.00;;
24485;SDS011;13449;49.374;8.584;2023-06-01T02:52:05;2.30;;;1.70;;
24485;SDS011;13449;49.374;8.584;2023-06-01T02:58:14;3.00;;;1.70;;
24485;SDS011;13449;49.374;8.584;2023-06-01T03:00:44;5.20;;;1.65;;
24485;SDS011;13449;49.374;8.584;2023-06-01T03:03:10;4.18;;;2.10;;
24485;SDS011;13449;49.374;8.584;2023-06-01T03:05:38;3.80;;;1.50;;
24485;SDS011;13449;49.374;8.584;2023-06-01T03:08:05;2.53;;;1.73;;
24485;SDS011;13449;49.374;8.584;2023-06-01T03:10:34;3.97;;;1.70;;
24485;SDS011;13449;49.374;8.584;2023-06-01T03:13:01;5.95;;;1.58;;
24485;SDS011;13449;49.374;8.584;2023-06-01T03:15:30;3.10;;;1.40;;
24485;SDS011;13449;49.374;8.584;2023-06-01T03:17:56;7.30;;;2.20;;
24485;SDS011;13449;49.374;8.584;2023-06-01T03:20:23;3.45;;;2.03;;
24485;SDS011;13449;49.374;8.584;2023-06-01T03:22:49;5.57;;;1.65;;
24485;SDS011;13449;49.374;8.584;2023-06-01T03:25:16;3.15;;;2.13;;
24485;SDS011;13449;49.374;8.584;2023-06-01T03:27:43;4.28;;;2.10;;
24485;SDS011;13449;49.374;8.584;2023-06-01T03:30:10;6.32;;;2.00;;
24485;SDS011;13449;49.374;8.584;2023-06-01T03:32:37;5.80;;;2.53;;
24485;SDS011;13449;49.374;8.584;2023-06-01T03:35:05;3.78;;;1.85;;
24485;SDS011;13449;49.374;8.584;2023-06-01T03:37:35;5.95;;;2.25;;
24485;SDS011;13449;49.374;8.584;2023-06-01T03:40:03;4.70;;;1.65;;
24485;SDS011;13449;49.374;8.584;2023-06-01T03:42:45;9.30;;;2.40;;
24485;SDS011;13449;49.374;8.584;2023-06-01T03:45:16;7.40;;;2.05;;
24485;SDS011;13449;49.374;8.584;2023-06-01T03:47:43;9.05;;;2.10;;
24485;SDS011;13449;49.374;8.584;2023-06-01T03:50:09;2.92;;;1.60;;
24485;SDS011;13449;49.374;8.584;2023-06-01T03:52:38;7.43;;;2.05;;
24485;SDS011;13449;49.374;8.584;2023-06-01T03:55:05;8.00;;;1.35;;
24485;SDS011;13449;49.374;8.584;2023-06-01T03:57:37;5.28;;;1.98;;
24485;SDS011;13449;49.374;8.584;2023-06-01T04:00:07;9.43;;;2.17;;
24485;SDS011;13449;49.374;8.584;2023-06-01T04:05:15;6.68;;;1.45;;
24485;SDS011;13449;49.374;8.584;2023-06-01T04:07:47;3.65;;;1.63;;
24485;SDS011;13449;49.374;8.584;2023-06-01T04:10:14;4.57;;;1.58;;
24485;SDS011;13449;49.374;8.584;2023-06-01T04:12:45;2.03;;;1.30;;
24485;SDS011;13449;49.374;8.584;2023-06-01T04:15:14;2.17;;;1.30;;
24485;SDS011;13449;49.374;8.584;2023-06-01T04:17:42;3.15;;;1.42;;
24485;SDS011;13449;49.374;8.584;2023-06-01T04:20:12;3.58;;;1.70;;
24485;SDS011;13449;49.374;8.584;2023-06-01T04:22:40;2.97;;;1.08;;
24485;SDS011;13449;49.374;8.584;2023-06-01T04:25:08;2.78;;;1.05;;
24485;SDS011;13449;49.374;8.584;2023-06-01T04:27:42;4.68;;;1.40;;
24485;SDS011;13449;49.374;8.584;2023-06-01T04:30:18;2.45;;;1.45;;
24485;SDS011;13449;49.374;8.584;2023-06-01T04:32:46;6.22;;;2.33;;
24485;SDS011;13449;49.374;8.584;2023-06-01T04:35:14;3.15;;;1.75;;
24485;SDS011;13449;49.374;8.584;2023-06-01T04:37:41;2.20;;;1.35;;
24485;SDS011;13449;49.374;8.584;2023-06-01T04:40:09;2.67;;;1.70;;
24485;SDS011;13449;49.374;8.584;2023-06-01T04:42:37;4.05;;;1.80;;
24485;SDS011;13449;49.374;8.584;2023-06-01T04:45:08;2.47;;;1.40;;
24485;SDS011;13449;49.374;8.584;2023-06-01T04:47:36;2.40;;;1.05;;
24485;SDS011;13449;49.374;8.584;2023-06-01T04:50:07;4.72;;;2.10;;
24485;SDS011;13449;49.374;8.584;2023-06-01T04:52:38;6.72;;;1.80;;
24485;SDS011;13449;49.374;8.584;2023-06-01T04:55:06;1.75;;;1.58;;
24485;SDS011;13449;49.374;8.584;2023-06-01T04:57:37;16.83;;;1.67;;
24485;SDS011;13449;49.374;8.584;2023-06-01T05:00:07;7.50;;;2.35;;
24485;SDS011;13449;49.374;8.584;2023-06-01T05:02:38;4.55;;;2.30;;
24485;SDS011;13449;49.374;8.584;2023-06-01T05:05:05;2.58;;;1.75;;
24485;SDS011;13449;49.374;8.584;2023-06-01T05:07:33;5.75;;;2.15;;
24485;SDS011;13449;49.374;8.584;2023-06-01T05:10:03;3.55;;;2.13;;
24485;SDS011;13449;49.374;8.584;2023-06-01T05:12:32;3.90;;;1.80;;
24485;SDS011;13449;49.374;8.584;2023-06-01T05:15:00;2.75;;;1.85;;
24485;SDS011;13449;49.374;8.584;2023-06-01T05:19:58;7.40;;;1.80;;
24485;SDS011;13449;49.374;8.584;2023-06-01T05:22:25;3.03;;;1.85;;
24485;SDS011;13449;49.374;8.584;2023-06-01T05:24:52;8.20;;;2.17;;
24485;SDS011;13449;49.374;8.584;2023-06-01T05:27:18;5.68;;;1.73;;
24485;SDS011;13449;49.374;8.584;2023-06-01T05:29:45;8.35;;;2.10;;
24485;SDS011;13449;49.374;8.584;2023-06-01T05:32:12;3.53;;;1.33;;
24485;SDS011;13449;49.374;8.584;2023-06-01T05:34:40;2.75;;;1.95;;
24485;SDS011;13449;49.374;8.584;2023-06-01T05:37:09;11.65;;;2.35;;
24485;SDS011;13449;49.374;8.584;2023-06-01T05:39:36;15.48;;;2.60;;
24485;SDS011;13449;49.374;8.584;2023-06-01T05:42:02;6.00;;;1.30;;
24485;SDS011;13449;49.374;8.584;2023-06-01T05:44:30;2.78;;;1.55;;
24485;SDS011;13449;49.374;8.584;2023-06-01T05:46:57;5.68;;;2.60;;
24485;SDS011;13449;49.374;8.584;2023-06-01T05:49:24;7.85;;;2.33;;
24485;SDS011;13449;49.374;8.584;2023-06-01T05:51:50;15.38;;;1.80;;
24485;SDS011;13449;49.374;8.584;2023-06-01T05:54:17;12.38;;;2.25;;
24485;SDS011;13449;49.374;8.584;2023-06-01T05:56:43;6.97;;;2.30;;
24485;SDS011;13449;49.374;8.584;2023-06-01T05:59:10;7.20;;;2.03;;
24485;SDS011;13449;49.374;8.584;2023-06-01T06:01:37;5.00;;;2.17;;
24485;SDS011;13449;49.374;8.584;2023-06-01T06:04:04;3.13;;;1.85;;
24485;SDS011;13449;49.374;8.584;2023-06-01T06:06:35;3.55;;;2.17;;
24485;SDS011;13449;49.374;8.584;2023-06-01T06:09:02;12.48;;;2.38;;
24485;SDS011;13449;49.374;8.584;2023-06-01T06:11:30;2.92;;;1.67;;
24485;SDS011;13449;49.374;8.584;2023-06-01T06:13:59;2.67;;;1.90;;
24485;SDS011;13449;49.374;8.584;2023-06-01T06:16:26;13.55;;;2.58;;
24485;SDS011;13449;49.374;8.584;2023-06-01T06:18:52;5.70;;;2.22;;
24485;SDS011;13449;49.374;8.584;2023-06-01T06:21:21;3.60;;;2.13;;
24485;SDS011;13449;49.374;8.584;2023-06-01T06:23:48;3.83;;;2.33;;
24485;SDS011;13449;49.374;8.584;2023-06-01T06:26:15;2.95;;;1.77;;
24485;SDS011;13449;49.374;8.584;2023-06-01T06:28:42;2.97;;;1.88;;
24485;SDS011;13449;49.374;8.584;2023-06-01T06:31:11;6.40;;;2.30;;
24485;SDS011;13449;49.374;8.584;2023-06-01T06:33:37;4.97;;;1.90;;
24485;SDS011;13449;49.374;8.584;2023-06-01T06:36:03;6.05;;;2.00;;
24485;SDS011;13449;49.374;8.584;2023-06-01T06:38:30;5.47;;;3.05;;
24485;SDS011;13449;49.374;8.584;2023-06-01T06:40:57;7.45;;;2.20;;
24485;SDS011;13449;49.374;8.584;2023-06-01T06:43:23;4.05;;;2.22;;
24485;SDS011;13449;49.374;8.584;2023-06-01T06:45:50;3.47;;;1.60;;
24485;SDS011;13449;49.374;8.584;2023-06-01T06:48:16;8.52;;;2.40;;
24485;SDS011;13449;49.374;8.584;2023-06-01T06:50:43;2.55;;;1.77;;
24485;SDS011;13449;49.374;8.584;2023-06-01T06:53:11;7.07;;;1.85;;
24485;SDS011;13449;49.374;8.584;2023-06-01T06:55:38;5.68;;;1.85;;
24485;SDS011;13449;49.374;8.584;2023-06-01T06:58:04;5.97;;;1.80;;
24485;SDS011;13449;49.374;8.584;2023-06-01T07:00:31;11.02;;;2.28;;
24485;SDS011;13449;49.374;8.584;2023-06-01T07:02:58;4.93;;;2.05;;
24485;SDS011;13449;49.374;8.584;2023-06-01T07:05:29;3.72;;;2.22;;
24485;SDS011;13449;49.374;8.584;2023-06-01T07:07:58;9.98;;;2.35;;
24485;SDS011;13449;49.374;8.584;2023-06-01T07:10:25;3.95;;;2.45;;
24485;SDS011;13449;49.374;8.584;2023-06-01T07:12:54;7.47;;;2.47;;
24485;SDS011;13449;49.374;8.584;2023-06-01T07:15:21;5.13;;;1.77;;
24485;SDS011;13449;49.374;8.584;2023-06-01T07:17:47;2.25;;;1.38;;
24485;SDS011;13449;49.374;8.584;2023-06-01T07:20:14;4.45;;;1.88;;
24485;SDS011;13449;49.374;8.584;2023-06-01T07:22:44;10.75;;;4.20;;
24485;SDS011;13449;49.374;8.584;2023-06-01T07:25:11;4.20;;;2.55;;
24485;SDS011;13449;49.374;8.584;2023-06-01T07:27:39;6.20;;;1.60;;
24485;SDS011;13449;49.374;8.584;2023-06-01T07:30:10;7.80;;;1.88;;
24485;SDS011;13449;49.374;8.584;2023-06-01T07:32:38;12.95;;;2.25;;
24485;SDS011;13449;49.374;8.584;2023-06-01T07:35:05;11.75;;;1.73;;
24485;SDS011;13449;49.374;8.584;2023-06-01T07:37:34;9.15;;;2.08;;
24485;SDS011;13449;49.374;8.584;2023-06-01T07:40:03;10.70;;;2.50;;
24485;SDS011;13449;49.374;8.584;2023-06-01T07:42:34;3.10;;;2.05;;
24485;SDS011;13449;49.374;8.584;2023-06-01T07:45:00;4.63;;;2.25;;
24485;SDS011;13449;49.374;8.584;2023-06-01T07:47:28;3.53;;;2.10;;
24485;SDS011;13449;49.374;8.584;2023-06-01T07:49:56;6.70;;;2.17;;
24485;SDS011;13449;49.374;8.584;2023-06-01T07:52:22;3.05;;;2.03;;
24485;SDS011;13449;49.374;8.584;2023-06-01T07:54:49;4.90;;;2.20;;
24485;SDS011;13449;49.374;8.584;2023-06-01T07:57:16;7.10;;;1.90;;
24485;SDS011;13449;49.374;8.584;2023-06-01T07:59:43;8.18;;;2.00;;
24485;SDS011;13449;49.374;8.584;2023-06-01T08:02:12;7.93;;;2.10;;
24485;SDS011;13449;49.374;8.584;2023-06-01T08:04:39;6.65;;;1.70;;
24485;SDS011;13449;49.374;8.584;2023-06-01T08:07:08;11.25;;;1.80;;
24485;SDS011;13449;49.374;8.584;2023-06-01T08:09:40;4.80;;;2.10;;
24485;SDS011;13449;49.374;8.584;2023-06-01T08:12:08;6.95;;;1.90;;
24485;SDS011;13449;49.374;8.584;2023-06-01T08:14:37;3.42;;;1.80;;
24485;SDS011;13449;49.374;8.584;2023-06-01T08:17:04;5.68;;;1.70;;
24485;SDS011;13449;49.374;8.584;2023-06-01T08:19:34;6.35;;;1.95;;
24485;SDS011;13449;49.374;8.584;2023-06-01T08:22:01;3.50;;;2.28;;
24485;SDS011;13449;49.374;8.584;2023-06-01T08:24:30;10.48;;;2.05;;
24485;SDS011;13449;49.374;8.584;2023-06-01T08:26:58;14.35;;;2.55;;
24485;SDS011;13449;49.374;8.584;2023-06-01T08:29:24;5.63;;;1.95;;
24485;SDS011;13449;49.374;8.584;2023-06-01T08:32:07;8.27;;;1.92;;
24485;SDS011;13449;49.374;8.584;2023-06-01T08:34:38;10.80;;;2.10;;
24485;SDS011;13449;49.374;8.584;2023-06-01T08:37:04;8.93;;;1.83;;
24485;SDS011;13449;49.374;8.584;2023-06-01T08:39:31;10.90;;;2.15;;
24485;SDS011;13449;49.374;8.584;2023-06-01T08:42:03;8.32;;;2.13;;
24485;SDS011;13449;49.374;8.584;2023-06-01T08:44:37;4.18;;;1.80;;
24485;SDS011;13449;49.374;8.584;2023-06-01T08:47:06;2.72;;;2.08;;
24485;SDS011;13449;49.374;8.584;2023-06-01T08:49:34;8.98;;;1.83;;
24485;SDS011;13449;49.374;8.584;2023-06-01T08:52:05;2.33;;;1.50;;
24485;SDS011;13449;49.374;8.584;2023-06-01T08:54:34;5.15;;;1.90;;
24485;SDS011;13449;49.374;8.584;2023-06-01T08:57:03;5.63;;;2.00;;
24485;SDS011;13449;49.374;8.584;2023-06-01T08:59:31;7.85;;;1.73;;
24485;SDS011;13449;49.374;8.584;2023-06-01T09:02:01;4.97;;;1.92;;
24485;SDS011;13449;49.374;8.584;2023-06-01T09:04:28;8.55;;;2.17;;
24485;SDS011;13449;49.374;8.584;2023-06-01T09:07:00;5.40;;;1.80;;
24485;SDS011;13449;49.374;8.584;2023-06-01T09:09:31;5.15;;;1.40;;
24485;SDS011;13449;49.374;8.584;2023-06-01T09:14:47;8.63;;;1.95;;
24485;SDS011;13449;49.374;8.584;2023-06-01T09:17:15;8.48;;;1.42;;
24485;SDS011;13449;49.374;8.584;2023-06-01T09:19:49;4.30;;;2.05;;
24485;SDS011;13449;49.374;8.584;2023-06-01T09:25:09;9.10;;;1.67;;
24485;SDS011;13449;49.374;8.584;2023-06-01T09:27:48;2.53;;;1.60;;
24485;SDS011;13449;49.374;8.584;2023-06-01T09:30:20;5.82;;;2.10;;
24485;SDS011;13449;49.374;8.584;2023-06-01T09:35:57;9.38;;;1.75;;
24485;SDS011;13449;49.374;8.584;2023-06-01T09:38:27;3.72;;;1.70;;
24485;SDS011;13449;49.374;8.584;2023-06-01T09:40:58;4.00;;;1.55;;
24485;SDS011;13449;49.374;8.584;2023-06-01T09:43:28;10.55;;;1.58;;
24485;SDS011;13449;49.374;8.584;2023-06-01T09:46:08;3.45;;;1.77;;
24485;SDS011;13449;49.374;8.584;2023-06-01T09:48:35;4.15;;;1.52;;
24485;SDS011;13449;49.374;8.584;2023-06-01T09:51:05;6.70;;;1.77;;
24485;SDS011;13449;49.374;8.584;2023-06-01T09:53:48;2.80;;;2.08;;
24485;SDS011;13449;49.374;8.584;2023-06-01T09:56:15;2.40;;;1.50;;
24485;SDS011;13449;49.374;8.584;2023-06-01T09:58:41;4.85;;;1.70;;
24485;SDS011;13449;49.374;8.584;2023-06-01T10:01:09;5.25;;;1.92;;
24485;SDS011;13449;49.374;8.584;2023-06-01T10:03:40;6.10;;;1.92;;
24485;SDS011;13449;49.374;8.584;2023-06-01T10:06:11;2.30;;;1.60;;
24485;SDS011;13449;49.374;8.584;2023-06-01T10:08:40;9.17;;;1.87;;
24485;SDS011;13449;49.374;8.584;2023-06-01T10:11:08;10.02;;;2.00;;
24485;SDS011;13449;49.374;8.584;2023-06-01T10:13:35;10.40;;;1.90;;
24485;SDS011;13449;49.374;8.584;2023-06-01T10:16:04;3.47;;;2.15;;
24485;SDS011;13449;49.374;8.584;2023-06-01T10:18:40;3.40;;;1.48;;
24485;SDS011;13449;49.374;8.584;2023-06-01T10:21:07;2.65;;;1.52;;
24485;SDS011;13449;49.374;8.584;2023-06-01T10:23:36;9.57;;;1.13;;
24485;SDS011;13449;49.374;8.584;2023-06-01T10:26:09;7.45;;;1.67;;
24485;SDS011;13449;49.374;8.584;2023-06-01T10:28:41;2.20;;;1.70;;
24485;SDS011;13449;49.374;8.584;2023-06-01T10:31:31;9.07;;;1.55;;
24485;SDS011;13449;49.374;8.584;2023-06-01T10:34:00;3.80;;;1.88;;
24485;SDS011;13449;49.374;8.584;2023-06-01T10:41:51;1.50;;;1.40;;
24485;SDS011;13449;49.374;8.584;2023-06-01T10:52:25;3.20;;;1.30;;
24485;SDS011;13449;49.374;8.584;2023-06-01T10:54:54;1.95;;;1.48;;
24485;SDS011;13449;49.374;8.584;2023-06-01T10:57:44;5.43;;;1.58;;
24485;SDS011;13449;49.374;8.584;2023-06-01T11:02:49;5.18;;;1.13;;
24485;SDS011;13449;49.374;8.584;2023-06-01T11:05:41;4.78;;;1.60;;
24485;SDS011;13449;49.374;8.584;2023-06-01T11:13:21;10.20;;;1.50;;
24485;SDS011;13449;49.374;8.584;2023-06-01T11:18:55;3.78;;;1.30;;
24485;SDS011;13449;49.374;8.584;2023-06-01T11:21:41;4.53;;;1.42;;
24485;SDS011;13449;49.374;8.584;2023-06-01T11:24:10;2.17;;;1.70;;
24485;SDS011;13449;49.374;8.584;2023-06-01T11:26:45;5.13;;;1.55;;
24485;SDS011;13449;49.374;8.584;2023-06-01T11:29:19;6.65;;;1.95;;
24485;SDS011;13449;49.374;8.584;2023-06-01T11:31:49;3.65;;;1.45;;
24485;SDS011;13449;49.374;8.584;2023-06-01T11:34:18;3.22;;;1.33;;
24485;SDS011;13449;49.374;8.584;2023-06-01T11:36:55;4.03;;;1.88;;
24485;SDS011;13449;49.374;8.584;2023-06-01T11:39:25;2.33;;;1.50;;
24485;SDS011;13449;49.374;8.584;2023-06-01T11:42:04;8.55;;;1.50;;
24485;SDS011;13449;49.374;8.584;2023-06-01T11:44:36;12.30;;;1.83;;
24485;SDS011;13449;49.374;8.584;2023-06-01T11:47:06;3.50;;;1.40;;
24485;SDS011;13449;49.374;8.584;2023-06-01T11:49:44;1.75;;;1.25;;
24485;SDS011;13449;49.374;8.584;2023-06-01T11:52:16;2.58;;;1.48;;
24485;SDS011;13449;49.374;8.584;2023-06-01T11:54:46;1.58;;;1.25;;
24485;SDS011;13449;49.374;8.584;2023-06-01T11:57:13;5.30;;;1.40;;
24485;SDS011;13449;49.374;8.584;2023-06-01T11:59:43;8.07;;;1.75;;
24485;SDS011;13449;49.374;8.584;2023-06-01T12:02:46;3.28;;;2.00;;
24485;SDS011;13449;49.374;8.584;2023-06-01T12:05:06;5.38;;;1.50;;
24485;SDS011;13449;49.374;8.584;2023-06-01T12:07:45;6.38;;;1.40;;
24485;SDS011;13449;49.374;8.584;2023-06-01T12:10:21;1.38;;;1.10;;
24485;SDS011;13449;49.374;8.584;2023-06-01T12:12:48;7.90;;;1.75;;
24485;SDS011;13449;49.374;8.584;2023-06-01T12:15:17;6.68;;;1.92;;
24485;SDS011;13449;49.374;8.584;2023-06-01T12:17:48;4.65;;;1.73;;
24485;SDS011;13449;49.374;8.584;2023-06-01T12:25:47;3.60;;;1.65;;
24485;SDS011;13449;49.374;8.584;2023-06-01T12:28:14;2.55;;;1.80;;
24485;SDS011;13449;49.374;8.584;2023-06-01T12:30:41;9.40;;;1.95;;
24485;SDS011;13449;49.374;8.584;2023-06-01T12:33:08;4.18;;;1.40;;
24485;SDS011;13449;49.374;8.584;2023-06-01T12:35:47;7.30;;;1.70;;
24485;SDS011;13449;49.374;8.584;2023-06-01T12:38:17;3.00;;;1.23;;
24485;SDS011;13449;49.374;8.584;2023-06-01T12:40:46;3.40;;;1.95;;
24485;SDS011;13449;49.374;8.584;2023-06-01T12:43:31;2.55;;;1.58;;
24485;SDS011;13449;49.374;8.584;2023-06-01T12:45:57;1.40;;;1.30;;
24485;SDS011;13449;49.374;8.584;2023-06-01T12:48:34;5.13;;;1.58;;
24485;SDS011;13449;49.374;8.584;2023-06-01T12:51:03;3.78;;;1.70;;
24485;SDS011;13449;49.374;8.584;2023-06-01T12:53:30;9.52;;;1.85;;
24485;SDS011;13449;49.374;8.584;2023-06-01T12:55:59;1.92;;;1.20;;
24485;SDS011;13449;49.374;8.584;2023-06-01T12:58:26;2.00;;;1.45;;
24485;SDS011;13449;49.374;8.584;2023-06-01T13:00:54;1.67;;;1.25;;
24485;SDS011;13449;49.374;8.584;2023-06-01T13:03:41;5.80;;;1.67;;
24485;SDS011;13449;49.374;8.584;2023-06-01T13:06:08;7.07;;;1.65;;
24485;SDS011;13449;49.374;8.584;2023-06-01T13:08:35;5.20;;;1.67;;
24485;SDS011;13449;49.374;8.584;2023-06-01T13:11:03;4.28;;;1.52;;
24485;SDS011;13449;49.374;8.584;2023-06-01T13:13:29;5.57;;;1.42;;
24485;SDS011;13449;49.374;8.584;2023-06-01T13:15:56;2.40;;;1.60;;
24485;SDS011;13449;49.374;8.584;2023-06-01T13:18:23;3.30;;;1.58;;
24485;SDS011;13449;49.374;8.584;2023-06-01T13:20:52;4.40;;;1.63;;
24485;SDS011;13449;49.374;8.584;2023-06-01T13:23:20;4.18;;;1.50;;
24485;SDS011;13449;49.374;8.584;2023-06-01T13:25:54;1.52;;;1.27;;
24485;SDS011;13449;49.374;8.584;2023-06-01T13:28:21;4.45;;;1.65;;
24485;SDS011;13449;49.374;8.584;2023-06-01T13:30:47;3.40;;;1.50;;
24485;SDS011;13449;49.374;8.584;2023-06-01T13:33:14;2.50;;;1.33;;
24485;SDS011;13449;49.374;8.584;2023-06-01T13:35:41;5.40;;;1.58;;
24485;SDS011;13449;49.374;8.584;2023-06-01T13:38:07;1.70;;;1.35;;
24485;SDS011;13449;49.374;8.584;2023-06-01T13:40:34;2.17;;;1.10;;
24485;SDS011;13449;49.374;8.584;2023-06-01T13:43:00;3.85;;;1.60;;
24485;SDS011;13449;49.374;8.584;2023-06-01T13:45:29;2.70;;;1.20;;
24485;SDS011;13449;49.374;8.584;2023-06-01T13:47:57;3.45;;;1.23;;
24485;SDS011;13449;49.374;8.584;2023-06-01T13:50:27;5.32;;;1.48;;
24485;SDS011;13449;49.374;8.584;2023-06-01T13:52:53;4.50;;;1.80;;
24485;SDS011;13449;49.374;8.584;2023-06-01T13:55:22;6.78;;;1.65;;
24485;SDS011;13449;49.374;8.584;2023-06-01T13:57:49;6.72;;;1.27;;
24485;SDS011;13449;49.374;8.584;2023-06-01T14:00:16;6.05;;;1.30;;
24485;SDS011;13449;49.374;8.584;2023-06-01T14:02:45;3.15;;;1.30;;
24485;SDS011;13449;49.374;8.584;2023-06-01T14:05:12;2.15;;;1.40;;
24485;SDS011;13449;49.374;8.584;2023-06-01T14:07:48;4.70;;;1.70;;
24485;SDS011;13449;49.374;8.584;2023-06-01T14:10:15;9.23;;;1.45;;
24485;SDS011;13449;49.374;8.584;2023-06-01T14:12:43;5.65;;;1.50;;
24485;SDS011;13449;49.374;8.584;2023-06-01T14:15:11;7.60;;;1.70;;
24485;SDS011;13449;49.374;8.584;2023-06-01T14:17:41;7.22;;;1.83;;
24485;SDS011;13449;49.374;8.584;2023-06-01T14:20:08;5.35;;;1.67;;
24485;SDS011;13449;49.374;8.584;2023-06-01T14:22:35;2.30;;;1.20;;
24485;SDS011;13449;49.374;8.584;2023-06-01T14:25:06;2.92;;;1.30;;
24485;SDS011;13449;49.374;8.584;2023-06-01T14:27:33;7.95;;;1.42;;
24485;SDS011;13449;49.374;8.584;2023-06-01T14:30:02;7.10;;;1.45;;
24485;SDS011;13449;49.374;8.584;2023-06-01T14:32:35;12.77;;;1.65;;
24485;SDS011;13449;49.374;8.584;2023-06-01T14:35:05;7.38;;;1.70;;
24485;SDS011;13449;49.374;8.584;2023-06-01T14:37:35;8.45;;;1.50;;
24485;SDS011;13449;49.374;8.584;2023-06-01T14:40:14;2.78;;;1.67;;
24485;SDS011;13449;49.374;8.584;2023-06-01T14:42:43;1.55;;;1.33;;
24485;SDS011;13449;49.374;8.584;2023-06-01T14:45:10;1.77;;;1.15;;
24485;SDS011;13449;49.374;8.584;2023-06-01T14:47:39;2.15;;;1.40;;
24485;SDS011;13449;49.374;8.584;2023-06-01T14:50:09;6.35;;;1.42;;
24485;SDS011;13449;49.374;8.584;2023-06-01T14:52:38;3.42;;;1.42;;
24485;SDS011;13449;49.374;8.584;2023-06-01T14:55:05;7.43;;;1.30;;
24485;SDS011;13449;49.374;8.584;2023-06-01T14:57:32;3.78;;;1.60;;
24485;SDS011;13449;49.374;8.584;2023-06-01T14:59:58;5.97;;;1.30;;
24485;SDS011;13449;49.374;8.584;2023-06-01T15:02:30;2.72;;;1.50;;
24485;SDS011;13449;49.374;8.584;2023-06-01T15:04:57;6.63;;;1.65;;
24485;SDS011;13449;49.374;8.584;2023-06-01T15:07:24;5.68;;;1.25;;
24485;SDS011;13449;49.374;8.584;2023-06-01T15:09:50;8.23;;;1.38;;
24485;SDS011;13449;49.374;8.584;2023-06-01T15:12:19;2.05;;;0.95;;
24485;SDS011;13449;49.374;8.584;2023-06-01T15:14:46;8.63;;;1.30;;
24485;SDS011;13449;49.374;8.584;2023-06-01T15:17:14;7.68;;;1.27;;
24485;SDS011;13449;49.374;8.584;2023-06-01T15:19:41;3.13;;;1.48;;
24485;SDS011;13449;49.374;8.584;2023-06-01T15:22:07;9.85;;;1.42;;
24485;SDS011;13449;49.374;8.584;2023-06-01T15:24:34;1.63;;;1.10;;
24485;SDS011;13449;49.374;8.584;2023-06-01T15:27:01;5.97;;;1.48;;
24485;SDS011;13449;49.374;8.584;2023-06-01T15:29:27;3.53;;;1.48;;
24485;SDS011;13449;49.374;8.584;2023-06-01T15:31:56;3.42;;;1.60;;
24485;SDS011;13449;49.374;8.584;2023-06-01T15:34:22;4.70;;;1.23;;
24485;SDS011;13449;49.374;8.584;2023-06-01T15:36:49;1.40;;;1.27;;
24485;SDS011;13449;49.374;8.584;2023-06-01T15:39:18;4.38;;;1.42;;
24485;SDS011;13449;49.374;8.584;2023-06-01T15:44:22;2.20;;;1.20;;
24485;SDS011;13449;49.374;8.584;2023-06-01T15:46:51;6.60;;;1.52;;
24485;SDS011;13449;49.374;8.584;2023-06-01T15:49:20;4.05;;;1.45;;
24485;SDS011;13449;49.374;8.584;2023-06-01T15:51:47;2.10;;;1.20;;
24485;SDS011;13449;49.374;8.584;2023-06-01T15:54:13;1.92;;;1.10;;
24485;SDS011;13449;49.374;8.584;2023-06-01T15:56:41;3.90;;;1.30;;